Time,TemperatureF,DewpointF,PressureIn,WindDirection,WindDirectionDegrees,WindSpeedMPH,WindSpeedGustMPH,Humidity,HourlyPrecipIn,Conditions,Clouds,dailyrainin,SolarRadiationWatts/m^2,SoftwareType,DateUTC
2013-05-21 00:00:00,78.0,64.0,-100.00,South,180,0.0,-999.0,62,-99.99,,,-99.99,0.000000,,2013-05-21 04:00:00,
2013-05-21 00:33:00,78.0,64.0,-100.00,South,180,0.0,-999.0,62,-99.99,,,-99.99,0.000000,,2013-05-21 04:33:00,
2013-05-21 00:42:00,78.0,64.0,-100.00,South,180,0.0,-999.0,62,-99.99,,,-99.99,0.000000,,2013-05-21 04:42:00,
2013-05-21 00:53:00,78.0,64.0,-100.00,South,180,0.0,-999.0,62,-99.99,,,-99.99,0.000000,,2013-05-21 04:53:00,
2013-05-21 01:00:00,76.0,63.0,-100.00,SSE,157,0.0,-999.0,64,-99.99,,,-99.99,0.000000,,2013-05-21 05:00:00,
2013-05-21 01:32:00,76.0,63.0,-100.00,SSE,157,0.0,-999.0,64,-99.99,,,-99.99,0.000000,,2013-05-21 05:32:00,
2013-05-21 01:42:00,76.0,63.0,-100.00,SSE,157,0.0,-999.0,64,-99.99,,,-99.99,0.000000,,2013-05-21 05:42:00,
2013-05-21 01:52:00,76.0,63.0,-100.00,SSE,157,0.0,-999.0,64,-99.99,,,-99.99,0.000000,,2013-05-21 05:52:00,
2013-05-21 02:00:00,75.0,64.0,-100.00,SE,135,0.0,-999.0,68,-99.99,,,-99.99,0.000000,,2013-05-21 06:00:00,
2013-05-21 02:32:00,75.0,64.0,-100.00,SE,135,0.0,-999.0,68,-99.99,,,-99.99,0.000000,,2013-05-21 06:32:00,
2013-05-21 02:42:00,75.0,64.0,-100.00,SE,135,0.0,-999.0,68,-99.99,,,-99.99,0.000000,,2013-05-21 06:42:00,
2013-05-21 02:52:00,75.0,64.0,-100.00,SE,135,0.0,-999.0,68,-99.99,,,-99.99,0.000000,,2013-05-21 06:52:00,
2013-05-21 05:00:00,63.0,63.0,-100.00,ESE,112,0.0,-999.0,102,0.12,,,-99.99,0.000000,,2013-05-21 09:00:00,
2013-05-21 05:33:00,63.0,63.0,-100.00,ESE,112,0.0,-999.0,102,0.12,,,-99.99,0.000000,,2013-05-21 09:33:00,
2013-05-21 05:42:00,63.0,63.0,-100.00,ESE,112,0.0,-999.0,102,0.12,,,-99.99,0.000000,,2013-05-21 09:42:00,
2013-05-21 05:53:00,63.0,63.0,-100.00,ESE,112,0.0,-999.0,102,0.12,,,-99.99,0.000000,,2013-05-21 09:53:00,
2013-05-21 06:00:00,63.0,63.0,-100.00,SE,135,0.0,-999.0,102,-99.99,,,-99.99,0.000000,,2013-05-21 10:00:00,
2013-05-21 06:42:00,63.0,63.0,-100.00,SE,135,0.0,-999.0,102,-99.99,,,-99.99,0.000000,,2013-05-21 10:42:00,
2013-05-21 06:52:00,63.0,63.0,-100.00,SE,135,0.0,-999.0,102,-99.99,,,-99.99,0.000000,,2013-05-21 10:52:00,
2013-05-21 07:00:00,63.0,63.0,-100.00,SE,135,0.0,-999.0,102,-99.99,,,-99.99,9.280000,,2013-05-21 11:00:00,
2013-05-21 07:42:00,63.0,63.0,-100.00,SE,135,0.0,-999.0,102,-99.99,,,-99.99,9.280000,,2013-05-21 11:42:00,
2013-05-21 07:52:00,63.0,63.0,-100.00,SE,135,0.0,-999.0,102,-99.99,,,-99.99,9.280000,,2013-05-21 11:52:00,
2013-05-21 08:00:00,64.0,64.0,-100.00,SSE,157,0.0,-999.0,102,-99.99,,,-99.99,148.479996,,2013-05-21 12:00:00,
2013-05-21 08:42:00,64.0,64.0,-100.00,SSE,157,0.0,-999.0,102,-99.99,,,-99.99,148.479996,,2013-05-21 12:42:00,
2013-05-21 08:52:00,64.0,64.0,-100.00,SSE,157,0.0,-999.0,102,-99.99,,,-99.99,148.479996,,2013-05-21 12:52:00,
2013-05-21 09:00:00,65.0,65.0,-100.00,SSE,157,0.0,-999.0,97,-99.99,,,-99.99,175.160004,,2013-05-21 13:00:00,
2013-05-21 09:42:00,65.0,65.0,-100.00,SSE,157,0.0,-999.0,97,-99.99,,,-99.99,175.160004,,2013-05-21 13:42:00,
2013-05-21 09:52:00,65.0,65.0,-100.00,SSE,157,0.0,-999.0,97,-99.99,,,-99.99,175.160004,,2013-05-21 13:52:00,
2013-05-21 10:00:00,67.0,64.0,-100.00,SSE,157,0.0,-999.0,90,-99.99,,,-99.99,267.959991,,2013-05-21 14:00:00,
2013-05-21 10:42:00,67.0,64.0,-100.00,SSE,157,0.0,-999.0,90,-99.99,,,-99.99,267.959991,,2013-05-21 14:42:00,
2013-05-21 10:52:00,67.0,64.0,-100.00,SSE,157,0.0,-999.0,90,-99.99,,,-99.99,267.959991,,2013-05-21 14:52:00,
2013-05-21 12:00:00,73.0,64.0,-100.00,South,180,0.0,-999.0,73,-99.99,,,-99.99,627.559998,,2013-05-21 16:00:00,
2013-05-21 12:42:00,73.0,64.0,-100.00,South,180,0.0,-999.0,73,-99.99,,,-99.99,627.559998,,2013-05-21 16:42:00,
2013-05-21 12:53:00,73.0,64.0,-100.00,South,180,0.0,-999.0,73,-99.99,,,-99.99,627.559998,,2013-05-21 16:53:00,
2013-05-21 13:00:00,74.0,64.0,-100.00,South,180,0.0,-999.0,69,-99.99,,,-99.99,625.239990,,2013-05-21 17:00:00,
2013-05-21 13:44:00,74.0,64.0,-100.00,South,180,0.0,-999.0,69,-99.99,,,-99.99,625.239990,,2013-05-21 17:44:00,
2013-05-21 13:52:00,74.0,64.0,-100.00,South,180,0.0,-999.0,69,-99.99,,,-99.99,625.239990,,2013-05-21 17:52:00,
2013-05-21 14:00:00,74.0,63.0,-100.00,South,180,0.0,-999.0,70,-99.99,,,-99.99,425.720001,,2013-05-21 18:00:00,
2013-05-21 14:32:00,74.0,63.0,-100.00,South,180,0.0,-999.0,70,-99.99,,,-99.99,425.720001,,2013-05-21 18:32:00,
2013-05-21 14:42:00,74.0,63.0,-100.00,South,180,0.0,-999.0,70,-99.99,,,-99.99,425.720001,,2013-05-21 18:42:00,
2013-05-21 14:52:00,74.0,63.0,-100.00,South,180,0.0,-999.0,70,-99.99,,,-99.99,425.720001,,2013-05-21 18:52:00,
2013-05-21 15:00:00,76.0,65.0,-100.00,South,180,0.0,-999.0,68,-99.99,,,-99.99,766.760010,,2013-05-21 19:00:00,
2013-05-21 15:32:00,76.0,65.0,-100.00,South,180,0.0,-999.0,68,-99.99,,,-99.99,766.760010,,2013-05-21 19:32:00,
2013-05-21 15:42:00,76.0,65.0,-100.00,South,180,0.0,-999.0,68,-99.99,,,-99.99,766.760010,,2013-05-21 19:42:00,
2013-05-21 15:52:00,76.0,65.0,-100.00,South,180,0.0,-999.0,68,-99.99,,,-99.99,766.760010,,2013-05-21 19:52:00,
2013-05-21 17:00:00,79.0,65.0,-100.00,South,180,0.0,-999.0,61,-99.99,,,-99.99,553.320007,,2013-05-21 21:00:00,
2013-05-21 17:33:00,79.0,65.0,-100.00,South,180,0.0,-999.0,61,-99.99,,,-99.99,553.320007,,2013-05-21 21:33:00,
2013-05-21 17:43:00,79.0,65.0,-100.00,South,180,0.0,-999.0,61,-99.99,,,-99.99,553.320007,,2013-05-21 21:43:00,
2013-05-21 17:54:00,79.0,65.0,-100.00,South,180,0.0,-999.0,61,-99.99,,,-99.99,553.320007,,2013-05-21 21:54:00,
2013-05-21 19:00:00,80.0,64.0,-100.00,South,180,0.0,-999.0,57,-99.99,,,-99.99,350.320007,,2013-05-21 23:00:00,
2013-05-21 19:32:00,80.0,64.0,-100.00,South,180,0.0,-999.0,57,-99.99,,,-99.99,350.320007,,2013-05-21 23:32:00,
2013-05-21 19:42:00,80.0,64.0,-100.00,South,180,0.0,-999.0,57,-99.99,,,-99.99,350.320007,,2013-05-21 23:42:00,
2013-05-21 19:52:00,80.0,64.0,-100.00,South,180,0.0,-999.0,57,-99.99,,,-99.99,350.320007,,2013-05-21 23:52:00,
2013-05-21 21:00:00,77.0,64.0,-100.00,SW,225,0.0,-999.0,65,-99.99,,,-99.99,54.520000,,2013-05-22 01:00:00,
2013-05-21 21:32:00,77.0,64.0,-100.00,SW,225,0.0,-999.0,65,-99.99,,,-99.99,54.520000,,2013-05-22 01:32:00,
2013-05-21 21:42:00,77.0,64.0,-100.00,SW,225,0.0,-999.0,65,-99.99,,,-99.99,54.520000,,2013-05-22 01:42:00,
2013-05-21 21:52:00,77.0,64.0,-100.00,SW,225,0.0,-999.0,65,-99.99,,,-99.99,54.520000,,2013-05-22 01:52:00,
2013-05-21 22:00:00,69.0,65.0,-100.00,SSW,202,0.0,-999.0,87,-99.99,,,-99.99,1.160000,,2013-05-22 02:00:00,
2013-05-21 22:32:00,69.0,65.0,-100.00,SSW,202,0.0,-999.0,87,-99.99,,,-99.99,1.160000,,2013-05-22 02:32:00,
2013-05-21 22:42:00,69.0,65.0,-100.00,SSW,202,0.0,-999.0,87,-99.99,,,-99.99,1.160000,,2013-05-22 02:42:00,
2013-05-21 22:52:00,69.0,65.0,-100.00,SSW,202,0.0,-999.0,87,-99.99,,,-99.99,1.160000,,2013-05-22 02:52:00,